Time;durP1;ratioP1;P1;durP2;ratioP2;P2;SDS_P1;SDS_P2;PMS_P1;PMS_P2;Temp;Humidity;BMP_temperature;BMP_pressure;BME280_temperature;BME280_humidity;BME280_pressure;Samples;Min_cycle;Max_cycle;Signal;HPM_P1;HPM_P2
2021/07/19 00:00:13;;;;;;;11.77;8.40;;;;;;;16.61;85.33;102436.19;6124970;23;20008;-78
2021/07/19 00:02:40;;;;;;;14.90;8.30;;;;;;;16.61;85.34;102443.28;6125841;23;20010;-78
2021/07/19 00:05:07;;;;;;;13.40;8.73;;;;;;;16.58;85.52;102437.91;6125893;23;20002;-78
2021/07/19 00:07:33;;;;;;;10.68;7.70;;;;;;;16.54;85.60;102446.72;6125479;23;20441;-77
2021/07/19 00:09:58;;;;;;;12.35;7.43;;;;;;;16.50;85.62;102441.31;6126098;23;20017;-77
2021/07/19 00:12:24;;;;;;;9.25;6.38;;;;;;;16.47;85.30;102453.66;6126393;23;20017;-76
2021/07/19 00:15:12;;;;;;;12.35;7.05;;;;;;;16.42;85.31;102450.03;6125280;23;20076;-75
2021/07/19 00:17:37;;;;;;;13.43;8.05;;;;;;;16.37;85.70;102452.59;6126167;23;20017;-77
2021/07/19 00:20:23;;;;;;;9.93;8.23;;;;;;;16.29;85.80;102457.78;6126770;23;20333;-79
2021/07/19 00:23:09;;;;;;;14.13;9.63;;;;;;;16.24;85.94;102448.81;6126345;23;20069;-79
2021/07/19 00:25:35;;;;;;;11.52;7.88;;;;;;;16.22;86.05;102457.63;6126066;23;20052;-79
2021/07/19 00:28:01;;;;;;;15.13;8.50;;;;;;;16.17;86.82;102454.88;6126252;23;20393;-77
2021/07/19 00:30:26;;;;;;;13.90;8.57;;;;;;;16.12;86.71;102452.13;6125829;23;20010;-78
2021/07/19 00:32:52;;;;;;;14.93;8.40;;;;;;;16.10;86.70;102453.88;6125560;23;20434;-77
2021/07/19 00:35:18;;;;;;;14.45;9.10;;;;;;;16.07;86.77;102459.09;6126519;23;20036;-78
2021/07/19 00:38:03;;;;;;;14.52;9.38;;;;;;;16.04;87.16;102469.66;6126623;23;20002;-77
2021/07/19 00:40:49;;;;;;;15.82;9.82;;;;;;;16.01;87.16;102465.19;6126488;23;20017;-77
2021/07/19 00:43:15;;;;;;;11.52;7.65;;;;;;;16.03;86.83;102462.56;6125376;23;20005;-77
2021/07/19 00:45:40;;;;;;;12.02;8.65;;;;;;;16.04;87.15;102469.66;6100258;23;20073;-77
2021/07/19 00:48:06;;;;;;;15.38;8.00;;;;;;;16.05;86.83;102470.56;6125065;23;20029;-79
2021/07/19 00:50:36;;;;;;;14.68;8.48;;;;;;;16.02;86.87;102467.00;6125068;23;20014;-78
2021/07/19 00:53:03;;;;;;;16.67;8.77;;;;;;;16.02;86.86;102466.09;6125962;23;20014;-77
2021/07/19 00:55:49;;;;;;;12.00;7.80;;;;;;;16.02;86.44;102458.13;6126037;23;20433;-78
2021/07/19 00:58:17;;;;;;;9.65;7.35;;;;;;;16.04;86.22;102464.34;6126768;23;20061;-78
2021/07/19 01:00:48;;;;;;;12.73;7.93;;;;;;;16.02;86.23;102460.78;6126880;23;20006;-78
2021/07/19 01:03:53;;;;;;;11.45;7.72;;;;;;;16.04;86.01;102451.09;6126811;23;20446;-77
2021/07/19 01:06:20;;;;;;;13.77;7.63;;;;;;;16.01;86.11;102451.03;6127505;23;20018;-78
2021/07/19 01:09:06;;;;;;;10.10;6.45;;;;;;;15.96;86.51;102460.66;6127281;23;20390;-78
2021/07/19 01:11:32;;;;;;;12.10;7.25;;;;;;;15.87;86.44;102447.19;6126512;23;20010;-77
2021/07/19 01:14:17;;;;;;;11.52;7.88;;;;;;;15.81;86.61;102448.84;6126662;23;20056;-77
2021/07/19 01:16:43;;;;;;;13.10;7.32;;;;;;;15.76;86.80;102445.19;6126524;23;20013;-77
2021/07/19 01:19:32;;;;;;;12.68;7.65;;;;;;;15.72;86.78;102451.31;6126404;23;20314;-78
2021/07/19 01:22:29;;;;;;;12.15;7.28;;;;;;;15.66;86.87;102451.16;6127316;23;20014;-77
2021/07/19 01:25:13;;;;;;;11.50;7.07;;;;;;;15.61;87.15;102443.13;6126075;23;20006;-77
2021/07/19 01:28:34;;;;;;;11.55;6.63;;;;;;;15.57;87.20;102453.59;6126728;23;20012;-78
2021/07/19 01:31:04;;;;;;;13.07;7.78;;;;;;;15.49;87.28;102453.44;6126814;23;20418;-77
2021/07/19 01:33:50;;;;;;;9.38;6.68;;;;;;;15.46;87.12;102449.00;6127014;23;20377;-77
2021/07/19 01:36:37;;;;;;;11.35;7.28;;;;;;;15.38;87.58;102455.84;6126048;23;20157;-78
2021/07/19 01:39:23;;;;;;;17.52;7.45;;;;;;;15.34;87.85;102443.38;6101735;23;20006;-77
2021/07/19 01:42:09;;;;;;;8.40;7.15;;;;;;;15.32;87.70;102450.41;6126200;23;20148;-77
2021/07/19 01:44:36;;;;;;;9.25;7.10;;;;;;;15.24;87.94;102439.63;6126895;23;20014;-78
2021/07/19 01:47:06;;;;;;;11.65;7.82;;;;;;;15.20;88.33;102440.41;6127371;23;20013;-78
2021/07/19 01:49:32;;;;;;;14.05;7.50;;;;;;;15.15;88.37;102448.28;6099905;23;20090;-78
2021/07/19 01:52:37;;;;;;;12.10;7.18;;;;;;;15.12;88.26;102445.53;6126698;23;20012;-79
2021/07/19 01:55:07;;;;;;;12.15;7.10;;;;;;;15.10;88.48;102446.38;6126049;23;20037;-77
2021/07/19 01:57:52;;;;;;;10.05;7.30;;;;;;;15.06;88.45;102442.75;6126715;23;20086;-76
2021/07/19 02:00:19;;;;;;;13.30;7.15;;;;;;;15.04;88.27;102439.16;6125719;23;20434;-77
2021/07/19 02:02:50;;;;;;;15.32;6.70;;;;;;;15.05;88.21;102427.69;6126538;23;20452;-78
2021/07/19 02:05:36;;;;;;;9.98;7.28;;;;;;;15.03;88.58;102432.09;6126169;23;20034;-79
2021/07/19 02:08:21;;;;;;;9.25;6.47;;;;;;;15.01;88.69;102439.09;6126643;23;20014;-76
2021/07/19 02:11:07;;;;;;;10.75;7.13;;;;;;;14.97;88.57;102435.47;6125595;23;20010;-77
2021/07/19 02:13:37;;;;;;;11.88;6.65;;;;;;;14.96;88.17;102438.09;6126377;23;20391;-77
2021/07/19 02:16:04;;;;;;;10.77;5.95;;;;;;;14.96;88.38;102435.44;6126177;23;20017;-77
2021/07/19 02:18:50;;;;;;;11.48;7.25;;;;;;;14.96;88.33;102436.34;6126361;23;20080;-77
2021/07/19 02:21:19;;;;;;;11.95;7.38;;;;;;;14.94;88.82;102431.88;6126674;23;20093;-77
2021/07/19 02:23:47;;;;;;;12.90;7.00;;;;;;;14.91;89.00;102445.06;6126242;23;20028;-77
2021/07/19 02:26:13;;;;;;;12.73;7.53;;;;;;;14.88;89.01;102442.31;6101209;23;20010;-78
2021/07/19 02:28:38;;;;;;;11.60;7.07;;;;;;;14.84;88.99;102451.94;6125572;23;20018;-76
2021/07/19 02:31:06;;;;;;;12.95;6.88;;;;;;;14.81;88.87;102447.47;6126978;23;20006;-78
2021/07/19 02:33:52;;;;;;;10.48;7.22;;;;;;;14.78;89.13;102447.38;6126475;23;20010;-79
2021/07/19 02:36:18;;;;;;;9.27;6.85;;;;;;;14.76;88.89;102443.81;6125896;23;20069;-77
2021/07/19 02:38:47;;;;;;;13.40;6.60;;;;;;;14.77;88.76;102444.69;6127512;23;20383;-79
2021/07/19 02:41:33;;;;;;;12.80;7.20;;;;;;;14.74;89.06;102445.50;6127175;23;20005;-76
2021/07/19 02:44:03;;;;;;;9.77;6.53;;;;;;;14.70;89.17;102443.63;6126711;23;20017;-78
2021/07/19 02:46:30;;;;;;;14.18;7.55;;;;;;;14.72;89.31;102447.22;6126334;23;20446;-77
2021/07/19 02:48:58;;;;;;;13.55;7.60;;;;;;;14.75;89.45;102457.91;6126774;23;20507;-77
2021/07/19 02:51:27;;;;;;;16.33;7.75;;;;;;;14.81;89.17;102446.56;6126980;23;20046;-78
2021/07/19 02:54:13;;;;;;;15.15;7.13;;;;;;;14.86;89.36;102444.91;6126892;23;20014;-77
2021/07/19 02:56:41;;;;;;;17.38;8.15;;;;;;;14.91;89.35;102445.06;6127022;23;20010;-78
2021/07/19 02:59:06;;;;;;;17.63;7.05;;;;;;;14.93;89.03;102445.97;6125356;23;20429;-77
2021/07/19 03:01:53;;;;;;;12.95;7.60;;;;;;;14.97;88.68;102439.88;6126724;23;20069;-77
2021/07/19 03:04:46;;;;;;;14.80;8.05;;;;;;;15.01;88.23;102433.78;6125783;23;20013;-76
2021/07/19 03:07:29;;;;;;;21.63;7.80;;;;;;;15.00;88.64;102443.50;6126807;23;20080;-77
2021/07/19 03:10:00;;;;;;;18.95;8.95;;;;;;;14.96;88.83;102446.94;6126960;23;20002;-76
2021/07/19 03:12:45;;;;;;;17.15;8.30;;;;;;;14.91;89.01;102447.69;6126076;23;20006;-76
2021/07/19 03:15:11;;;;;;;16.05;7.70;;;;;;;14.84;89.23;102458.13;6125651;23;20010;-78
2021/07/19 03:17:38;;;;;;;12.05;7.22;;;;;;;14.80;89.07;102458.03;6126881;23;20029;-77
2021/07/19 03:20:25;;;;;;;14.73;8.25;;;;;;;14.76;89.32;102454.41;6126667;23;20089;-78
2021/07/19 03:23:12;;;;;;;20.15;8.35;;;;;;;14.74;89.40;102456.09;6126456;23;20014;-76
2021/07/19 03:25:38;;;;;;;14.55;8.02;;;;;;;14.70;89.63;102454.22;6126409;23;20504;-76
2021/07/19 03:28:05;;;;;;;13.07;8.35;;;;;;;14.67;89.74;102460.34;6125815;23;20010;-79
2021/07/19 03:30:31;;;;;;;14.18;8.18;;;;;;;14.68;90.28;102455.97;6100774;23;20448;-77
2021/07/19 03:32:58;;;;;;;14.43;8.23;;;;;;;14.71;90.52;102458.69;6127716;23;20426;-77
2021/07/19 03:35:24;;;;;;;17.05;9.60;;;;;;;14.76;90.66;102454.41;6127027;23;20021;-79
2021/07/19 03:37:51;;;;;;;20.08;9.82;;;;;;;14.83;91.12;102453.69;6127286;23;20061;-77
2021/07/19 03:40:18;;;;;;;18.05;10.13;;;;;;;14.90;91.06;102459.16;6127253;23;20303;-77
2021/07/19 03:42:45;;;;;;;19.98;10.25;;;;;;;14.96;90.94;102456.63;6126084;23;20061;-77
2021/07/19 03:45:14;;;;;;;13.90;8.93;;;;;;;15.01;90.77;102470.91;6126716;23;20373;-77
2021/07/19 03:48:02;;;;;;;13.50;8.73;;;;;;;15.06;90.72;102469.28;6126219;23;20056;-77
2021/07/19 03:50:49;;;;;;;18.10;9.68;;;;;;;15.14;90.40;102465.03;6126857;23;20090;-78
2021/07/19 03:53:15;;;;;;;14.77;7.75;;;;;;;15.23;90.20;102467.00;6126036;23;20014;-77
2021/07/19 03:55:44;;;;;;;16.90;8.95;;;;;;;15.27;89.83;102466.22;6126859;23;20053;-77
2021/07/19 03:58:11;;;;;;;19.10;9.30;;;;;;;15.27;89.61;102460.91;6126300;23;20010;-77
2021/07/19 04:00:56;;;;;;;13.63;7.65;;;;;;;15.30;89.56;102455.69;6125190;23;20006;-77
2021/07/19 04:03:27;;;;;;;14.23;8.60;;;;;;;15.34;89.36;102446.03;6125149;23;20061;-78
2021/07/19 04:06:03;;;;;;;14.93;9.30;;;;;;;15.39;89.39;102441.72;6126803;23;20021;-79
2021/07/19 04:08:34;;;;;;;17.05;8.77;;;;;;;15.45;89.47;102451.56;6127017;23;20012;-80
2021/07/19 04:11:01;;;;;;;14.43;8.95;;;;;;;15.46;89.33;102451.63;6126302;23;20010;-78
2021/07/19 04:13:46;;;;;;;20.02;9.07;;;;;;;15.50;89.26;102456.16;6126125;23;20005;-76
2021/07/19 04:16:21;;;;;;;14.93;8.48;;;;;;;15.54;89.12;102449.13;6125015;23;20021;-76
2021/07/19 04:18:48;;;;;;;13.48;7.40;;;;;;;15.56;88.83;102443.84;6126402;23;20021;-78
2021/07/19 04:21:17;;;;;;;11.57;7.75;;;;;;;15.58;89.02;102445.69;6127162;23;20028;-79
2021/07/19 04:23:43;;;;;;;12.85;8.07;;;;;;;15.62;88.71;102444.00;6127336;23;20006;-78
2021/07/19 04:26:51;;;;;;;15.68;8.13;;;;;;;15.64;88.38;102437.88;6125635;23;20010;-77
2021/07/19 04:29:21;;;;;;;13.38;7.72;;;;;;;15.70;88.12;102439.75;6123826;23;20378;-77
2021/07/19 04:32:07;;;;;;;11.52;8.05;;;;;;;15.74;87.97;102438.06;6126432;23;20457;-77
2021/07/19 04:34:52;;;;;;;10.98;8.52;;;;;;;15.78;87.87;102435.50;6124903;23;20014;-78
2021/07/19 04:37:38;;;;;;;18.08;8.10;;;;;;;15.88;87.60;102441.91;6127518;23;20343;-78
2021/07/19 04:40:25;;;;;;;16.48;8.40;;;;;;;15.96;87.68;102442.06;6128101;23;20006;-78
2021/07/19 04:42:51;;;;;;;12.18;7.07;;;;;;;16.02;87.19;102440.44;6128097;23;20081;-78
2021/07/19 04:45:36;;;;;;;12.00;6.95;;;;;;;16.11;86.65;102434.41;6127930;23;20423;-78
2021/07/19 04:48:02;;;;;;;11.13;6.88;;;;;;;16.18;86.34;102433.66;6126592;23;20014;-78
2021/07/19 04:50:27;;;;;;;12.30;7.88;;;;;;;16.25;86.59;102441.72;6128080;23;20414;-78
2021/07/19 04:52:53;;;;;;;9.98;6.97;;;;;;;16.28;86.12;102439.16;6127458;23;20017;-77
2021/07/19 04:55:20;;;;;;;16.73;7.75;;;;;;;16.30;85.99;102437.41;6126555;23;20006;-76
2021/07/19 04:57:51;;;;;;;10.75;7.57;;;;;;;16.29;85.97;102443.56;6126066;23;20138;-79
2021/07/19 05:00:17;;;;;;;17.92;7.70;;;;;;;16.30;86.31;102446.25;6126323;23;20005;-79
2021/07/19 05:02:45;;;;;;;14.82;7.75;;;;;;;16.31;85.64;102444.50;6126479;23;20014;-77
2021/07/19 05:05:14;;;;;;;10.90;7.07;;;;;;;16.40;86.52;102441.13;6125881;23;20440;-77
2021/07/19 05:07:43;;;;;;;13.02;7.00;;;;;;;16.44;85.86;102451.84;6127367;23;20009;-82
2021/07/19 05:10:29;;;;;;;11.48;6.75;;;;;;;16.51;85.80;102451.06;6126733;23;20002;-80
2021/07/19 05:13:15;;;;;;;12.20;7.25;;;;;;;16.63;84.90;102438.88;6126876;23;20030;-78
2021/07/19 05:15:45;;;;;;;12.50;7.47;;;;;;;16.60;84.72;102441.47;6127357;23;20013;-77
2021/07/19 05:18:11;;;;;;;14.40;7.28;;;;;;;16.65;84.96;102442.47;6128540;23;20010;-78
2021/07/19 05:20:40;;;;;;;12.93;7.50;;;;;;;16.64;84.87;102446.88;6127636;23;20444;-78
2021/07/19 05:23:06;;;;;;;13.23;7.75;;;;;;;16.65;84.95;102447.78;6128213;23;20017;-78
2021/07/19 05:25:32;;;;;;;17.20;8.10;;;;;;;16.72;84.80;102446.13;6127031;23;20006;-78
2021/07/19 05:27:57;;;;;;;20.27;8.48;;;;;;;16.74;84.49;102445.28;6127245;23;20073;-78
2021/07/19 05:30:23;;;;;;;14.77;9.05;;;;;;;16.75;83.47;102441.72;6127860;23;20040;-77
2021/07/19 05:32:50;;;;;;;13.35;8.27;;;;;;;16.82;82.83;102440.06;6128226;23;20374;-78
2021/07/19 05:35:17;;;;;;;13.80;8.80;;;;;;;16.82;82.95;102443.63;6128331;23;20452;-78
2021/07/19 05:37:43;;;;;;;13.40;8.10;;;;;;;16.86;82.92;102440.16;6128207;23;20006;-77
2021/07/19 05:40:28;;;;;;;13.82;7.55;;;;;;;16.85;82.70;102441.00;6127509;23;20322;-77
2021/07/19 05:42:54;;;;;;;13.52;7.85;;;;;;;16.80;82.85;102444.47;6126436;23;20018;-79
2021/07/19 05:45:39;;;;;;;16.30;8.35;;;;;;;16.68;83.10;102437.19;6125818;23;20029;-77
2021/07/19 05:48:08;;;;;;;14.88;8.38;;;;;;;16.56;83.59;102440.50;6102107;23;20014;-82
2021/07/19 05:50:35;;;;;;;20.70;9.10;;;;;;;16.46;83.75;102450.09;6127889;23;20117;-78
2021/07/19 05:53:01;;;;;;;11.63;8.75;;;;;;;16.45;84.17;102435.00;6127819;23;20080;-81
2021/07/19 05:55:27;;;;;;;18.13;9.05;;;;;;;16.47;84.22;102432.41;6127670;23;20330;-83
2021/07/19 05:58:12;;;;;;;14.27;8.25;;;;;;;16.54;84.32;102436.97;6129086;23;20426;-81
2021/07/19 06:00:38;;;;;;;20.00;8.73;;;;;;;16.59;84.08;102437.94;6128277;23;20013;-78
2021/07/19 06:03:23;;;;;;;18.10;8.68;;;;;;;16.75;83.96;102438.19;6128690;23;20326;-80
2021/07/19 06:05:49;;;;;;;12.40;8.10;;;;;;;16.86;83.55;102432.19;6127785;23;20010;-78
2021/07/19 06:08:14;;;;;;;14.00;8.38;;;;;;;16.98;82.75;102427.94;6128039;23;20429;-79
2021/07/19 06:10:40;;;;;;;14.95;8.88;;;;;;;17.09;82.78;102434.34;6126283;23;20033;-75
2021/07/19 06:13:05;;;;;;;15.32;8.70;;;;;;;17.17;81.82;102432.69;6127789;23;20002;-79
2021/07/19 06:15:31;;;;;;;15.10;8.43;;;;;;;17.19;81.56;102436.25;6127745;23;20125;-78
2021/07/19 06:17:56;;;;;;;15.38;9.15;;;;;;;17.29;81.23;102441.72;6127140;23;20473;-78
2021/07/19 06:20:29;;;;;;;15.05;8.80;;;;;;;17.32;81.06;102436.41;6126699;23;20014;-75
2021/07/19 06:23:03;;;;;;;14.38;8.88;;;;;;;17.37;81.00;102442.72;6126799;23;20008;-76
2021/07/19 06:25:32;;;;;;;;;;;;;;;17.38;80.99;102444.50;6127497;23;20010;-76
2021/07/19 06:28:17;;;;;;;16.83;8.57;;;;;;;17.36;80.82;102449.81;6126568;23;19932;-76
2021/07/19 06:30:43;;;;;;;15.77;8.15;;;;;;;17.37;81.51;102450.69;6124901;23;20370;-78
2021/07/19 06:33:08;;;;;;;14.25;8.02;;;;;;;17.38;81.29;102451.56;6124925;23;20052;-77
2021/07/19 06:35:35;;;;;;;14.88;8.70;;;;;;;17.39;81.04;102448.97;6125159;23;20077;-77
2021/07/19 06:38:00;;;;;;;20.10;9.40;;;;;;;17.38;80.98;102455.16;6126890;23;20076;-78
2021/07/19 06:40:25;;;;;;;18.42;9.05;;;;;;;17.34;80.75;102448.88;6127252;23;20026;-78
2021/07/19 06:42:51;;;;;;;16.80;8.75;;;;;;;17.43;80.74;102456.13;6126723;23;20010;-76
2021/07/19 06:45:17;;;;;;;15.02;7.95;;;;;;;17.53;80.76;102449.16;6127644;23;20010;-76
2021/07/19 06:47:43;;;;;;;13.73;7.72;;;;;;;17.56;80.67;102472.25;6126224;23;20085;-77
2021/07/19 06:50:11;;;;;;;15.10;7.82;;;;;;;17.61;80.41;102459.91;6127251;23;20092;-77
2021/07/19 06:52:37;;;;;;;14.40;7.45;;;;;;;17.64;80.41;102460.81;6127369;23;20093;-77
2021/07/19 06:55:06;;;;;;;14.60;7.28;;;;;;;17.70;80.44;102462.66;6127141;23;20499;-79
2021/07/19 06:57:32;;;;;;;14.63;8.68;;;;;;;17.76;80.36;102462.75;6126221;23;20002;-77
2021/07/19 06:59:57;;;;;;;14.70;8.77;;;;;;;17.86;80.04;102472.66;6127868;23;20080;-77
2021/07/19 07:02:23;;;;;;;14.27;8.23;;;;;;;17.97;80.09;102469.25;6127370;23;20009;-76
2021/07/19 07:04:48;;;;;;;10.00;7.70;;;;;;;18.06;79.50;102469.34;6125885;23;20001;-78
2021/07/19 07:07:14;;;;;;;17.38;8.63;;;;;;;18.04;79.58;102471.09;6126271;23;20021;-76
2021/07/19 07:09:39;;;;;;;12.98;8.50;;;;;;;18.06;78.67;102464.03;6126561;23;20029;-76
2021/07/19 07:12:05;;;;;;;17.25;8.32;;;;;;;18.08;77.87;102456.97;6127780;23;20013;-78
2021/07/19 07:14:31;;;;;;;16.83;8.00;;;;;;;18.09;77.88;102466.72;6101325;23;20017;-78
2021/07/19 07:16:56;;;;;;;12.95;8.73;;;;;;;18.10;79.77;102465.84;6126987;23;20016;-78
2021/07/19 07:19:23;;;;;;;13.07;7.63;;;;;;;18.21;78.06;102457.97;6126436;23;20010;-78
2021/07/19 07:21:48;;;;;;;13.55;8.35;;;;;;;18.22;77.51;102450.88;6127423;23;20021;-77
2021/07/19 07:24:14;;;;;;;13.88;7.30;;;;;;;18.40;76.08;102447.50;6127414;23;20002;-79
2021/07/19 07:26:59;;;;;;;13.32;7.55;;;;;;;18.62;77.03;102451.25;6127233;23;20076;-76
2021/07/19 07:29:24;;;;;;;12.68;6.88;;;;;;;18.87;75.32;102450.59;6127203;23;20002;-77
2021/07/19 07:31:51;;;;;;;10.45;6.68;;;;;;;19.13;75.93;102446.38;6126675;23;20006;-77
2021/07/19 07:34:16;;;;;;;12.70;7.43;;;;;;;19.20;73.35;102440.19;6127217;23;20013;-77
2021/07/19 07:36:45;;;;;;;10.85;6.68;;;;;;;19.43;74.00;102447.44;6127207;23;20006;-76
2021/07/19 07:39:10;;;;;;;10.65;6.90;;;;;;;19.48;71.73;102449.25;6127026;23;20311;-77
2021/07/19 07:41:35;;;;;;;11.27;6.43;;;;;;;19.65;71.51;102448.41;6126475;23;20129;-76
2021/07/19 07:44:01;;;;;;;10.77;6.90;;;;;;;19.76;70.74;102441.34;6126943;23;20025;-79
2021/07/19 07:46:26;;;;;;;13.68;7.35;;;;;;;19.92;70.82;102449.47;6127115;23;20013;-77
2021/07/19 07:48:53;;;;;;;11.38;6.38;;;;;;;20.06;69.24;102447.69;6126816;23;21944;-77
2021/07/19 07:51:19;;;;;;;10.35;6.57;;;;;;;20.24;68.33;102443.28;6126552;23;20010;-76
2021/07/19 07:54:04;;;;;;;10.32;6.28;;;;;;;20.41;70.32;102448.69;6126885;23;20016;-79
2021/07/19 07:56:30;;;;;;;11.02;5.93;;;;;;;20.28;67.07;102442.41;6127647;23;20027;-77
2021/07/19 07:58:55;;;;;;;12.68;6.95;;;;;;;20.67;67.57;102446.00;6126885;23;20085;-77
2021/07/19 08:01:21;;;;;;;9.27;4.85;;;;;;;21.17;65.92;102445.09;6127045;23;20032;-78
2021/07/19 08:03:46;;;;;;;8.73;5.05;;;;;;;21.55;61.62;102438.81;6126634;23;20383;-78
2021/07/19 08:06:12;;;;;;;5.13;3.50;;;;;;;21.51;57.19;102428.03;6126767;23;20374;-79
2021/07/19 08:08:37;;;;;;;5.65;3.40;;;;;;;21.71;57.69;102434.25;6126721;23;20002;-78
2021/07/19 08:11:26;;;;;;;10.10;4.03;;;;;;;21.67;58.79;102443.19;6126804;23;20018;-78
2021/07/19 08:13:51;;;;;;;8.48;4.10;;;;;;;21.60;59.51;102440.56;6126735;23;20005;-80
2021/07/19 08:16:17;;;;;;;9.65;3.85;;;;;;;21.40;59.50;102441.47;6126511;23;20096;-78
2021/07/19 08:19:03;;;;;;;6.97;4.05;;;;;;;21.09;58.60;102444.22;6126668;23;20014;-79
2021/07/19 08:21:50;;;;;;;7.22;3.65;;;;;;;21.21;60.45;102444.19;6125973;23;20057;-76
2021/07/19 08:24:16;;;;;;;8.10;4.28;;;;;;;21.08;62.14;102447.81;6125683;23;20025;-77
2021/07/19 08:26:41;;;;;;;11.15;4.95;;;;;;;21.27;60.94;102458.47;6125999;23;20030;-76
2021/07/19 08:29:06;;;;;;;7.90;4.53;;;;;;;21.08;61.70;102445.13;6100440;23;20006;-79
2021/07/19 08:31:33;;;;;;;8.82;4.03;;;;;;;21.13;61.35;102448.66;6127389;23;20428;-77
2021/07/19 08:34:00;;;;;;;6.72;4.85;;;;;;;21.15;61.86;102444.22;6126766;23;20429;-77
2021/07/19 08:36:25;;;;;;;6.55;4.22;;;;;;;21.10;63.00;102443.34;6126849;23;20029;-78
2021/07/19 08:38:51;;;;;;;11.07;4.95;;;;;;;21.22;63.99;102445.09;6100877;23;20010;-78
2021/07/19 08:41:17;;;;;;;7.72;3.90;;;;;;;21.53;61.58;102440.56;6126470;23;20002;-78
2021/07/19 08:43:44;;;;;;;8.00;5.28;;;;;;;21.98;61.50;102443.03;6101453;23;20006;-76
2021/07/19 08:46:11;;;;;;;5.90;4.30;;;;;;;22.23;60.86;102443.81;6127156;23;20010;-78
2021/07/19 08:48:56;;;;;;;10.02;4.75;;;;;;;22.56;60.92;102446.28;6126995;23;20036;-77
2021/07/19 08:51:22;;;;;;;9.43;4.90;;;;;;;22.80;58.16;102439.78;6127272;23;20017;-79
2021/07/19 08:54:28;;;;;;;8.27;4.38;;;;;;;22.97;58.81;102445.00;6126900;23;20049;-78
2021/07/19 08:56:56;;;;;;;11.05;5.13;;;;;;;23.38;56.85;102443.72;6126567;23;20449;-77
2021/07/19 08:59:22;;;;;;;8.75;5.05;;;;;;;23.20;56.32;102442.13;6126661;23;20069;-78
2021/07/19 09:01:48;;;;;;;8.70;4.75;;;;;;;23.08;57.35;102440.41;6126419;23;20092;-78
2021/07/19 09:04:36;;;;;;;8.50;5.38;;;;;;;22.97;55.90;102431.59;6126815;23;20010;-78
2021/07/19 09:07:22;;;;;;;15.40;5.60;;;;;;;23.14;56.60;102436.84;6126462;23;20037;-78
2021/07/19 09:09:50;;;;;;;10.25;5.78;;;;;;;23.02;56.14;102431.53;6126048;23;20398;-77
2021/07/19 09:12:17;;;;;;;9.75;4.88;;;;;;;22.95;56.82;102437.88;6125954;23;20419;-77
2021/07/19 09:15:05;;;;;;;12.90;6.32;;;;;;;22.79;57.47;102437.13;6126618;23;20040;-78
2021/07/19 09:17:31;;;;;;;10.60;6.32;;;;;;;22.90;57.50;102438.81;6127334;23;20022;-78
2021/07/19 09:19:57;;;;;;;11.77;6.05;;;;;;;23.28;57.04;102438.44;6128092;23;20504;-80
2021/07/19 09:22:43;;;;;;;7.63;5.18;;;;;;;24.88;54.09;102417.34;6128212;23;20032;-78
2021/07/19 09:25:13;;;;;;;8.35;5.43;;;;;;;26.00;48.28;102415.97;6126864;23;20017;-77
2021/07/19 09:27:50;;;;;;;10.15;5.85;;;;;;;26.11;49.45;102418.44;6127779;23;20001;-80
2021/07/19 09:30:16;;;;;;;7.68;5.53;;;;;;;26.86;46.36;102412.09;6128583;23;20010;-78
2021/07/19 09:33:00;;;;;;;10.63;5.85;;;;;;;26.53;46.73;102410.25;6128750;23;20089;-79
2021/07/19 09:36:05;;;;;;;10.63;5.38;;;;;;;25.61;49.69;102412.34;6128650;23;20005;-78
2021/07/19 09:38:31;;;;;;;9.25;5.30;;;;;;;24.87;51.22;102410.19;6127437;23;20090;-78
2021/07/19 09:41:18;;;;;;;9.70;5.90;;;;;;;24.29;51.34;102405.78;6128007;23;20017;-79
2021/07/19 09:44:07;;;;;;;9.13;5.13;;;;;;;23.43;55.40;102414.13;6127848;23;20018;-77
2021/07/19 09:46:33;;;;;;;11.52;5.50;;;;;;;23.20;54.88;102428.69;6127512;23;20005;-80
2021/07/19 09:49:00;;;;;;;9.98;6.00;;;;;;;22.88;57.19;102423.63;6127880;23;20064;-77
2021/07/19 09:51:30;;;;;;;10.02;5.85;;;;;;;22.97;55.70;102419.97;6128083;23;20072;-77
2021/07/19 09:53:56;;;;;;;8.57;5.47;;;;;;;22.77;56.82;102417.47;6127788;23;20010;-78
2021/07/19 09:56:22;;;;;;;9.35;5.75;;;;;;;22.51;59.19;102424.84;6127973;23;20005;-77
2021/07/19 09:58:52;;;;;;;8.82;5.20;;;;;;;22.30;60.24;102424.97;6127599;23;20437;-79
2021/07/19 10:01:31;;;;;;;10.18;6.20;;;;;;;22.32;57.69;102425.88;6127684;23;20006;-79
2021/07/19 10:04:03;;;;;;;10.77;4.78;;;;;;;22.18;55.99;102413.44;6103395;23;20077;-79
2021/07/19 10:06:29;;;;;;;10.93;5.50;;;;;;;22.29;55.47;102416.03;6126786;23;20034;-81
2021/07/19 10:09:15;;;;;;;9.18;5.47;;;;;;;22.27;57.92;102414.28;6127824;23;20006;-79
2021/07/19 10:12:04;;;;;;;11.02;5.47;;;;;;;22.68;57.38;102415.75;6126729;23;20074;-82
2021/07/19 10:14:35;;;;;;;8.02;5.30;;;;;;;23.18;55.96;102419.78;6127485;23;20034;-77
2021/07/19 10:17:03;;;;;;;9.85;5.32;;;;;;;23.54;56.17;102412.19;6127906;23;20010;-79
2021/07/19 10:19:48;;;;;;;12.32;5.60;;;;;;;24.26;52.00;102395.09;6127093;23;20026;-79
2021/07/19 10:22:14;;;;;;;10.55;5.65;;;;;;;25.53;47.54;102389.16;6127512;23;20037;-78
2021/07/19 10:24:43;;;;;;;12.25;5.80;;;;;;;27.11;46.33;102384.41;6128046;23;20002;-79
2021/07/19 10:27:37;;;;;;;11.13;5.53;;;;;;;28.12;41.70;102379.59;6127106;23;20488;-79
2021/07/19 10:30:03;;;;;;;8.32;5.22;;;;;;;27.99;43.54;102384.50;6127182;23;20453;-78
2021/07/19 10:32:30;;;;;;;6.30;4.68;;;;;;;28.33;41.37;102372.56;6130679;23;20002;-80
2021/07/19 10:34:56;;;;;;;10.52;5.35;;;;;;;27.61;42.52;102367.66;6127797;23;20021;-79
2021/07/19 10:37:43;;;;;;;10.98;4.95;;;;;;;26.60;44.95;102375.84;6127576;23;20337;-78
2021/07/19 10:40:30;;;;;;;9.52;4.93;;;;;;;25.55;48.04;102390.00;6127688;23;20421;-78
2021/07/19 10:43:29;;;;;;;8.10;4.75;;;;;;;25.37;46.18;102383.19;6127559;23;20010;-78
2021/07/19 10:45:59;;;;;;;10.88;5.75;;;;;;;25.82;46.37;102379.53;6126664;23;20326;-79
2021/07/19 10:48:49;;;;;;;8.40;5.38;;;;;;;25.73;45.11;102379.72;6127445;23;20036;-79
2021/07/19 10:51:23;;;;;;;11.30;5.40;;;;;;;25.61;46.64;102382.69;6127430;23;20010;-79
2021/07/19 10:53:48;;;;;;;8.52;5.45;;;;;;;25.15;46.36;102380.03;6127162;23;20020;-78
2021/07/19 10:56:34;;;;;;;9.55;5.35;;;;;;;26.19;45.13;102367.00;6126972;23;20081;-78
2021/07/19 10:59:00;;;;;;;7.53;5.15;;;;;;;25.87;44.83;102372.22;6126819;23;20448;-78
2021/07/19 11:02:14;;;;;;;8.07;5.43;;;;;;;26.11;44.09;102358.22;6126679;23;20002;-80
2021/07/19 11:04:46;;;;;;;;;;;;;;;27.29;41.89;102361.38;6126978;23;20024;-78
2021/07/19 11:07:12;;;;;;;6.43;4.90;;;;;;;28.10;38.67;102355.28;6127320;23;19909;-78
2021/07/19 11:09:59;;;;;;;7.35;4.68;;;;;;;26.81;42.27;102350.09;6126446;23;20310;-79
2021/07/19 11:12:24;;;;;;;9.57;5.65;;;;;;;26.60;42.79;102356.94;6127872;23;20010;-78
2021/07/19 11:14:55;;;;;;;8.20;5.05;;;;;;;26.81;42.27;102357.34;6127183;23;20041;-79
2021/07/19 11:17:40;;;;;;;10.65;4.70;;;;;;;27.55;40.14;102350.69;6102412;23;20009;-79
2021/07/19 11:20:12;;;;;;;8.35;5.32;;;;;;;27.84;38.34;102350.69;6127407;23;20022;-79
2021/07/19 11:22:37;;;;;;;10.85;4.75;;;;;;;27.53;41.45;102349.84;6127803;23;20009;-80
2021/07/19 11:25:12;;;;;;;7.40;4.72;;;;;;;27.35;41.41;102353.09;6127470;23;20010;-81
2021/07/19 11:27:57;;;;;;;10.85;5.25;;;;;;;26.61;43.38;102342.50;6127988;23;20152;-80
2021/07/19 11:30:25;;;;;;;11.10;4.93;;;;;;;26.13;42.95;102345.59;6126466;23;20002;-80
2021/07/19 11:32:51;;;;;;;11.57;5.15;;;;;;;27.02;43.47;102353.13;6127970;23;20014;-79
2021/07/19 11:35:20;;;;;;;10.68;5.20;;;;;;;27.00;41.50;102355.00;6127962;23;20306;-80
2021/07/19 11:38:13;;;;;;;8.65;5.30;;;;;;;27.12;40.91;102341.13;6101733;23;20460;-78
2021/07/19 11:40:59;;;;;;;5.75;4.20;;;;;;;27.34;42.18;102343.19;6127841;23;20010;-79
2021/07/19 11:43:29;;;;;;;9.90;5.50;;;;;;;27.68;41.49;102344.88;6127653;23;20013;-77
2021/07/19 11:45:55;;;;;;;8.90;5.13;;;;;;;27.69;39.56;102333.16;6127025;23;20013;-79